Time;durP1;ratioP1;P1;durP2;ratioP2;P2;SDS_P1;SDS_P2;PMS_P1;PMS_P2;Temp;Humidity;BMP_temperature;BMP_pressure;BME280_temperature;BME280_humidity;BME280_pressure;Samples;Min_cycle;Max_cycle;Signal;HPM_P1;HPM_P2
2023/01/06 00:00:38;;;;;;;41.50;9.15;;;9.90;99.90;;;;;;5055155;28;20041;-53
2023/01/06 00:03:04;;;;;;;42.55;9.73;;;10.00;99.90;;;;;;5054453;28;20050;-51
2023/01/06 00:05:30;;;;;;;38.22;10.02;;;10.10;99.90;;;;;;5054394;28;20212;-52
2023/01/06 00:07:56;;;;;;;38.40;8.43;;;10.10;99.90;;;;;;5052284;28;20056;-51
2023/01/06 00:10:22;;;;;;;42.92;9.88;;;12.10;99.90;;;;;;5055348;28;20119;-50
2023/01/06 00:12:48;;;;;;;28.48;8.30;;;9.80;99.90;;;;;;5052479;28;20709;-50
2023/01/06 00:15:15;;;;;;;36.67;8.73;;;10.10;99.90;;;;;;5053833;28;20062;-52
2023/01/06 00:17:41;;;;;;;37.25;9.13;;;10.00;99.90;;;;;;5053714;28;20044;-49
2023/01/06 00:20:08;;;;;;;37.55;8.70;;;10.10;99.90;;;;;;5053942;28;20052;-51
2023/01/06 00:22:34;;;;;;;32.58;7.82;;;9.90;99.90;;;;;;5054960;28;20048;-51
2023/01/06 00:25:00;;;;;;;42.53;8.55;;;10.10;99.90;;;;;;5053642;28;20049;-52
2023/01/06 00:27:26;;;;;;;33.85;7.10;;;9.90;99.90;;;;;;5053007;28;20041;-51
2023/01/06 00:29:52;;;;;;;28.17;6.85;;;9.90;99.90;;;;;;5054095;28;20037;-48
2023/01/06 00:32:18;;;;;;;30.42;6.95;;;9.90;99.90;;;;;;5053784;28;20044;-52
2023/01/06 00:34:44;;;;;;;33.58;7.85;;;10.10;99.90;;;;;;5051160;28;20040;-50
2023/01/06 00:37:10;;;;;;;33.15;6.82;;;10.00;99.90;;;;;;5053160;28;20046;-52
2023/01/06 00:39:36;;;;;;;28.10;6.82;;;10.10;99.90;;;;;;5053097;28;20350;-52
2023/01/06 00:42:05;;;;;;;21.85;5.57;;;10.10;99.90;;;;;;5053792;28;20057;-52
2023/01/06 00:44:36;;;;;;;30.63;6.13;;;10.10;99.90;;;;;;5053546;28;20048;-52
2023/01/06 00:47:03;;;;;;;26.23;5.78;;;10.10;99.90;;;;;;5053085;28;20520;-50
2023/01/06 00:49:29;;;;;;;24.67;5.40;;;10.10;99.90;;;;;;5035014;28;20523;-52
2023/01/06 00:51:55;;;;;;;24.63;6.18;;;10.20;99.90;;;;;;5053364;28;20049;-51
2023/01/06 00:54:21;;;;;;;23.95;6.85;;;10.00;99.90;;;;;;5052078;28;20045;-52
2023/01/06 00:56:49;;;;;;;21.83;5.57;;;10.20;99.90;;;;;;5053413;28;20528;-51
2023/01/06 00:59:17;;;;;;;21.73;6.57;;;10.30;99.90;;;;;;5053594;28;20052;-53
2023/01/06 01:01:44;;;;;;;18.10;4.82;;;10.10;99.90;;;;;;5052566;28;20048;-49
2023/01/06 01:04:10;;;;;;;21.60;5.20;;;10.10;99.90;;;;;;5052073;28;20070;-53
2023/01/06 01:06:36;;;;;;;20.90;4.95;;;10.10;99.90;;;;;;5052753;28;20036;-49
2023/01/06 01:09:03;;;;;;;20.30;4.43;;;10.10;99.90;;;;;;5052167;28;20040;-52
2023/01/06 01:14:15;;;;;;;18.85;3.90;;;10.10;99.90;;;;;;5052538;28;20044;-52
2023/01/06 01:16:41;;;;;;;16.88;4.70;;;10.00;99.90;;;;;;5052276;28;20048;-51
2023/01/06 01:19:07;;;;;;;17.15;4.38;;;10.10;99.90;;;;;;5052326;28;20781;-50
2023/01/06 01:21:33;;;;;;;15.25;3.67;;;9.90;99.90;;;;;;5054360;28;20044;-52
2023/01/06 01:23:59;;;;;;;22.40;4.25;;;10.10;99.90;;;;;;5053513;28;20036;-52
2023/01/06 01:26:24;;;;;;;16.48;3.92;;;9.90;99.90;;;;;;5053563;28;20094;-50
2023/01/06 01:28:50;;;;;;;14.55;3.45;;;10.10;99.90;;;;;;5052951;28;20052;-50
2023/01/06 01:31:16;;;;;;;14.63;3.15;;;10.00;99.90;;;;;;5053963;28;20158;-52
2023/01/06 01:33:42;;;;;;;13.07;3.50;;;10.00;99.90;;;;;;5053592;28;20059;-50
2023/01/06 01:36:09;;;;;;;12.20;3.42;;;10.00;99.90;;;;;;5053265;28;20040;-49
2023/01/06 01:38:35;;;;;;;11.48;4.15;;;10.00;99.90;;;;;;5053963;28;20525;-50
2023/01/06 01:41:02;;;;;;;14.73;4.10;;;9.90;99.90;;;;;;5053405;28;20062;-50
2023/01/06 01:43:50;;;;;;;22.52;4.75;;;10.00;99.90;;;;;;5053387;28;20902;-49
2023/01/06 01:46:45;;;;;;;17.38;4.53;;;9.90;99.90;;;;;;5051336;28;20087;-51
2023/01/06 01:49:22;;;;;;;15.57;4.78;;;9.90;99.90;;;;;;5049821;28;20040;-51
2023/01/06 01:51:49;;;;;;;19.63;5.38;;;9.90;99.90;;;;;;5053485;28;20036;-51
2023/01/06 01:54:25;;;;;;;17.13;5.00;;;10.00;99.90;;;;;;5052236;28;20040;-50
2023/01/06 01:57:05;;;;;;;14.40;5.35;;;9.80;99.90;;;;;;5052555;28;20380;-52
2023/01/06 01:59:35;;;;;;;11.48;4.78;;;9.90;99.90;;;;;;5051748;28;20040;-49
2023/01/06 02:02:01;;;;;;;16.95;5.72;;;10.00;99.90;;;;;;5050819;28;20451;-50
2023/01/06 02:04:27;;;;;;;14.98;5.25;;;9.90;99.90;;;;;;5051523;28;20047;-51
2023/01/06 02:06:53;;;;;;;19.25;5.45;;;10.00;99.90;;;;;;5052669;28;20044;-51
2023/01/06 02:09:32;;;;;;;19.27;4.80;;;10.00;99.90;;;;;;5052101;28;20380;-50
2023/01/06 02:11:57;;;;;;;13.65;5.15;;;10.00;99.90;;;;;;5051158;28;20133;-51
2023/01/06 02:14:25;;;;;;;13.85;4.75;;;10.00;99.90;;;;;;5051814;28;22703;-51
2023/01/06 02:17:03;;;;;;;16.40;4.78;;;10.00;99.90;;;;;;5052162;28;20130;-51
2023/01/06 02:20:02;;;;;;;12.80;4.57;;;10.00;99.90;;;;;;5051338;28;20123;-50
2023/01/06 02:23:06;;;;;;;16.63;5.18;;;9.90;99.90;;;;;;5053497;28;20056;-51
2023/01/06 02:25:50;;;;;;;19.20;5.20;;;9.80;99.90;;;;;;5048683;28;20040;-52
2023/01/06 02:28:50;;;;;;;15.80;5.35;;;9.90;99.90;;;;;;5048001;28;20036;-49
2023/01/06 02:32:06;;;;;;;14.50;4.57;;;10.10;99.90;;;;;;5015756;28;21025;-50
2023/01/06 02:34:50;;;;;;;13.82;4.57;;;9.90;99.90;;;;;;5054709;28;20044;-50
2023/01/06 02:37:42;;;;;;;17.88;6.05;;;10.30;99.90;;;;;;5055207;28;20447;-52
2023/01/06 02:40:38;;;;;;;11.35;4.80;;;9.80;99.90;;;;;;5055335;28;20045;-52
2023/01/06 02:43:38;;;;;;;14.38;3.40;;;9.90;99.90;;;;;;5056536;28;20182;-51
2023/01/06 02:46:10;;;;;;;12.50;3.63;;;9.80;99.90;;;;;;5056608;28;20036;-51
2023/01/06 02:48:53;;;;;;;14.25;3.88;;;9.80;99.90;;;;;;5056205;28;20404;-52
2023/01/06 02:51:26;;;;;;;10.40;3.00;;;9.60;99.90;;;;;;5057824;28;20045;-51
2023/01/06 02:54:11;;;;;;;10.93;3.05;;;10.00;99.90;;;;;;5056058;28;20040;-49
2023/01/06 02:56:41;;;;;;;9.20;3.78;;;9.90;99.90;;;;;;5057622;28;20045;-50
2023/01/06 02:59:13;;;;;;;14.38;3.20;;;9.80;99.90;;;;;;5056159;28;20098;-52
2023/01/06 03:01:45;;;;;;;8.82;2.45;;;9.80;99.90;;;;;;5057129;28;20527;-52
2023/01/06 03:04:17;;;;;;;10.82;2.80;;;9.70;99.90;;;;;;5056862;28;20132;-52
2023/01/06 03:06:47;;;;;;;11.50;2.88;;;9.90;99.90;;;;;;5056260;28;20052;-50
2023/01/06 03:09:17;;;;;;;12.63;2.70;;;9.90;99.90;;;;;;5056066;28;20048;-51
2023/01/06 03:11:44;;;;;;;10.13;3.33;;;9.80;99.90;;;;;;5054766;28;20051;-51
2023/01/06 03:14:28;;;;;;;7.15;2.78;;;9.90;99.90;;;;;;5055005;28;20114;-50
2023/01/06 03:16:54;;;;;;;10.98;3.97;;;9.90;99.90;;;;;;5054744;28;20115;-51
2023/01/06 03:19:20;;;;;;;9.23;3.28;;;9.90;99.90;;;;;;5054353;28;20070;-52
2023/01/06 03:21:47;;;;;;;8.82;3.67;;;9.80;99.90;;;;;;5055518;28;20040;-53
2023/01/06 03:24:14;;;;;;;7.97;3.63;;;9.80;99.90;;;;;;5054484;28;20242;-50
2023/01/06 03:26:42;;;;;;;12.05;3.20;;;9.90;99.90;;;;;;5054560;28;20476;-51
2023/01/06 03:29:11;;;;;;;10.27;3.72;;;9.90;99.90;;;;;;5054895;28;20134;-52
2023/01/06 03:31:42;;;;;;;12.48;3.92;;;9.80;99.90;;;;;;5055158;28;20547;-52
2023/01/06 03:34:20;;;;;;;12.75;3.67;;;10.10;99.90;;;;;;5054718;28;20043;-51
2023/01/06 03:36:46;;;;;;;9.75;3.65;;;9.90;99.90;;;;;;5054336;28;20041;-51
2023/01/06 03:39:18;;;;;;;8.52;3.35;;;10.00;99.90;;;;;;5054445;28;20052;-53
2023/01/06 03:45:01;;;;;;;8.60;3.20;;;9.90;99.90;;;;;;5054693;28;20549;-52
2023/01/06 03:47:38;;;;;;;9.13;3.50;;;10.00;99.90;;;;;;5054510;28;20044;-51
2023/01/06 03:50:10;;;;;;;8.30;4.38;;;10.00;99.90;;;;;;5055062;28;20140;-51
2023/01/06 03:52:40;;;;;;;;;;;9.90;99.90;;;;;;5056494;28;20052;-49
2023/01/06 03:55:13;;;;;;;10.10;4.18;;;9.80;99.90;;;;;;5055267;28;19924;-52
2023/01/06 03:57:43;;;;;;;9.98;4.07;;;10.20;99.90;;;;;;5054643;28;20078;-50
2023/01/06 04:00:14;;;;;;;11.57;4.63;;;10.00;99.90;;;;;;5054737;28;20443;-50
2023/01/06 04:02:40;;;;;;;11.75;4.63;;;10.10;99.90;;;;;;5055058;28;20044;-52
2023/01/06 04:05:12;;;;;;;7.60;5.07;;;10.00;99.90;;;;;;5055686;28;20472;-52
2023/01/06 04:07:39;;;;;;;10.98;5.50;;;10.00;99.90;;;;;;5055917;28;20044;-50
2023/01/06 04:10:06;;;;;;;9.85;6.07;;;9.90;99.90;;;;;;5055515;28;20075;-51
2023/01/06 04:12:38;;;;;;;9.02;5.28;;;10.00;99.90;;;;;;5054645;28;20475;-53
2023/01/06 04:15:06;;;;;;;9.52;5.78;;;10.00;99.90;;;;;;5055055;28;20143;-52
2023/01/06 04:17:32;;;;;;;8.55;5.38;;;11.90;99.90;;;;;;5054925;28;20044;-52
2023/01/06 04:19:58;;;;;;;10.77;6.03;;;10.00;99.90;;;;;;5054285;28;20083;-51
2023/01/06 04:22:23;;;;;;;9.07;5.10;;;9.80;99.90;;;;;;5055565;28;20079;-51
2023/01/06 04:24:49;;;;;;;20.00;6.43;;;9.90;99.90;;;;;;5054512;28;20373;-51
2023/01/06 04:27:15;;;;;;;8.27;4.93;;;10.00;99.90;;;;;;5053358;28;20032;-50
2023/01/06 04:29:41;;;;;;;8.07;4.53;;;10.00;99.90;;;;;;5053729;28;20756;-51
2023/01/06 04:32:06;;;;;;;10.10;4.78;;;9.90;99.90;;;;;;5052522;28;20047;-48
2023/01/06 04:34:32;;;;;;;7.28;4.07;;;10.20;99.90;;;;;;5053087;28;20093;-52
2023/01/06 04:36:58;;;;;;;7.20;3.40;;;9.80;99.90;;;;;;5052746;28;20130;-52
2023/01/06 04:39:23;;;;;;;5.75;3.45;;;10.00;99.90;;;;;;5053426;28;20056;-51
2023/01/06 04:41:49;;;;;;;7.93;4.40;;;10.00;99.90;;;;;;5052980;28;20063;-51
2023/01/06 04:44:15;;;;;;;8.55;3.10;;;10.00;99.90;;;;;;5054498;28;20574;-53
2023/01/06 04:46:40;;;;;;;10.02;3.13;;;9.90;99.90;;;;;;5053160;28;20036;-50
2023/01/06 04:49:06;;;;;;;7.53;2.92;;;9.90;99.90;;;;;;5052899;28;20072;-51
2023/01/06 04:51:32;;;;;;;6.55;2.70;;;10.10;99.90;;;;;;5053419;28;20040;-53
2023/01/06 04:53:58;;;;;;;5.75;2.40;;;10.00;99.90;;;;;;5052460;28;20049;-52
2023/01/06 04:56:23;;;;;;;7.85;2.67;;;10.10;99.90;;;;;;5052612;28;20105;-51
2023/01/06 04:58:54;;;;;;;7.65;2.88;;;10.20;99.90;;;;;;5052445;28;20039;-50
2023/01/06 05:01:20;;;;;;;6.90;2.80;;;10.10;99.90;;;;;;5053653;28;20788;-47
2023/01/06 05:03:45;;;;;;;6.05;2.42;;;10.00;99.90;;;;;;5052893;28;20032;-51
2023/01/06 05:06:11;;;;;;;6.22;2.55;;;10.00;99.90;;;;;;5053199;28;20047;-52
2023/01/06 05:08:39;;;;;;;6.20;2.67;;;10.10;99.90;;;;;;5053031;28;20045;-51
2023/01/06 05:11:11;;;;;;;11.73;2.85;;;10.20;99.90;;;;;;5054204;28;20051;-50
2023/01/06 05:13:37;;;;;;;4.78;2.50;;;10.10;99.90;;;;;;5054627;28;20094;-48
2023/01/06 05:16:14;;;;;;;7.13;3.08;;;10.10;99.90;;;;;;5055180;28;20045;-51
2023/01/06 05:18:40;;;;;;;7.47;2.70;;;10.20;99.90;;;;;;5054774;28;20041;-51
2023/01/06 05:21:06;;;;;;;5.50;2.78;;;10.30;99.90;;;;;;5054275;28;20299;-46
2023/01/06 05:23:32;;;;;;;6.97;2.53;;;10.10;99.90;;;;;;5055107;28;20115;-52
2023/01/06 05:25:58;;;;;;;7.38;2.80;;;10.10;99.90;;;;;;5054204;28;20075;-51
2023/01/06 05:28:24;;;;;;;9.70;3.00;;;10.10;99.90;;;;;;5054287;28;20521;-52
2023/01/06 05:30:50;;;;;;;6.68;3.00;;;10.00;99.90;;;;;;5053411;28;20048;-50
2023/01/06 05:33:15;;;;;;;7.82;2.97;;;9.90;99.90;;;;;;5053916;28;20036;-52
2023/01/06 05:35:41;;;;;;;7.40;2.88;;;10.00;99.90;;;;;;5053969;28;20036;-50
2023/01/06 05:38:07;;;;;;;7.22;2.92;;;9.90;99.90;;;;;;5053781;28;20068;-52
2023/01/06 05:40:34;;;;;;;7.22;2.97;;;10.00;99.90;;;;;;5053662;28;20047;-52
2023/01/06 05:42:59;;;;;;;8.75;3.03;;;9.20;99.90;;;;;;5050077;28;20550;-51
2023/01/06 05:45:25;;;;;;;11.35;4.47;;;9.80;99.90;;;;;;5053634;28;20044;-49
2023/01/06 05:47:51;;;;;;;10.88;4.40;;;10.00;99.90;;;;;;5052995;28;20501;-48
2023/01/06 05:50:17;;;;;;;7.10;4.18;;;9.80;99.90;;;;;;5053749;28;20037;-49
2023/01/06 05:52:43;;;;;;;8.43;4.40;;;9.70;99.90;;;;;;5053804;28;20131;-51
2023/01/06 05:55:09;;;;;;;10.10;5.93;;;9.70;99.90;;;;;;5052353;28;20143;-49
2023/01/06 05:57:36;;;;;;;11.43;5.97;;;9.70;99.90;;;;;;5051906;28;20453;-47
2023/01/06 06:00:05;;;;;;;13.05;6.95;;;9.50;99.90;;;;;;5051114;28;20066;-49
2023/01/06 06:02:31;;;;;;;14.25;7.55;;;9.80;99.90;;;;;;5051081;28;20476;-49
2023/01/06 06:04:57;;;;;;;13.65;7.22;;;9.50;99.90;;;;;;5050045;28;20047;-51
2023/01/06 06:07:23;;;;;;;11.52;7.18;;;9.50;99.90;;;;;;5052554;28;20044;-50
2023/01/06 06:09:48;;;;;;;15.38;7.57;;;9.60;99.90;;;;;;5051950;28;20048;-51
2023/01/06 06:12:14;;;;;;;13.75;7.70;;;9.40;99.90;;;;;;5051731;28;20045;-51
2023/01/06 06:14:40;;;;;;;12.73;7.35;;;9.60;99.90;;;;;;5051833;28;20048;-48
2023/01/06 06:17:05;;;;;;;12.98;8.20;;;9.50;99.90;;;;;;5052508;28;20123;-50
2023/01/06 06:19:31;;;;;;;13.00;8.65;;;9.40;99.90;;;;;;5051819;28;20079;-51
2023/01/06 06:21:57;;;;;;;14.07;8.65;;;9.40;99.90;;;;;;5052128;28;20517;-49
2023/01/06 06:24:22;;;;;;;11.07;7.45;;;9.50;99.90;;;;;;5050312;28;21026;-48
2023/01/06 06:26:48;;;;;;;11.68;7.50;;;9.40;99.90;;;;;;5052763;28;20041;-50
2023/01/06 06:29:14;;;;;;;13.02;6.70;;;9.40;99.90;;;;;;5051120;28;20494;-51
2023/01/06 06:31:39;;;;;;;9.63;6.75;;;9.50;99.90;;;;;;5051733;28;20032;-51
2023/01/06 06:34:05;;;;;;;12.02;7.57;;;9.60;99.90;;;;;;5051143;28;20397;-51
2023/01/06 06:36:31;;;;;;;12.70;7.53;;;9.50;99.90;;;;;;5051843;28;20036;-51
2023/01/06 06:38:57;;;;;;;11.75;7.82;;;9.50;99.90;;;;;;5051188;28;20041;-51
2023/01/06 06:41:24;;;;;;;11.90;7.32;;;9.50;99.90;;;;;;5051526;28;20052;-47
2023/01/06 06:43:51;;;;;;;12.90;7.50;;;9.50;99.90;;;;;;5051452;28;20513;-51
2023/01/06 06:46:18;;;;;;;12.88;7.18;;;9.60;99.90;;;;;;5049498;28;20439;-51
2023/01/06 06:48:43;;;;;;;11.23;7.38;;;9.40;99.90;;;;;;5050684;28;20538;-49
2023/01/06 06:51:18;;;;;;;12.68;7.60;;;9.40;99.90;;;;;;5052050;28;20045;-51
2023/01/06 06:53:44;;;;;;;10.13;6.75;;;9.40;99.90;;;;;;5053336;28;20056;-50
2023/01/06 06:56:10;;;;;;;9.60;5.40;;;9.50;99.90;;;;;;5053174;28;20056;-52
2023/01/06 06:58:37;;;;;;;9.43;6.28;;;9.40;99.90;;;;;;5052466;28;20037;-51
2023/01/06 07:01:14;;;;;;;10.55;5.72;;;9.40;99.90;;;;;;5051875;28;20094;-49
2023/01/06 07:03:40;;;;;;;8.85;5.30;;;9.40;99.90;;;;;;5051646;28;20044;-49
2023/01/06 07:06:08;;;;;;;8.95;5.25;;;9.40;99.90;;;;;;5052884;28;20113;-50
2023/01/06 07:08:34;;;;;;;8.00;4.20;;;9.30;99.90;;;;;;5052397;28;20059;-52
2023/01/06 07:11:00;;;;;;;9.30;4.80;;;9.40;99.90;;;;;;5052893;28;20032;-51
2023/01/06 07:13:27;;;;;;;8.98;4.90;;;9.80;99.90;;;;;;5053322;28;20043;-52
2023/01/06 07:15:52;;;;;;;6.57;5.00;;;9.50;99.90;;;;;;5054128;28;20041;-51
2023/01/06 07:18:18;;;;;;;6.93;4.00;;;9.50;99.90;;;;;;5055711;28;20055;-48
2023/01/06 07:20:48;;;;;;;6.78;4.03;;;9.50;99.90;;;;;;5055488;28;20445;-48
2023/01/06 07:23:15;;;;;;;5.47;3.13;;;9.60;99.90;;;;;;5056558;28;20040;-52
2023/01/06 07:25:41;;;;;;;7.93;3.50;;;9.60;99.90;;;;;;5056764;28;20288;-53
2023/01/06 07:28:08;;;;;;;6.90;3.58;;;9.50;99.90;;;;;;5055950;28;20036;-50
2023/01/06 07:30:34;;;;;;;5.28;2.50;;;9.30;99.90;;;;;;5054568;28;20509;-47
2023/01/06 07:33:01;;;;;;;8.40;2.85;;;9.30;99.90;;;;;;5054841;28;20402;-49
2023/01/06 07:35:27;;;;;;;13.32;3.03;;;9.50;99.90;;;;;;5054759;28;20068;-49
2023/01/06 07:37:52;;;;;;;9.30;2.70;;;9.40;99.90;;;;;;5054860;28;20047;-52
2023/01/06 07:40:18;;;;;;;7.75;2.20;;;9.30;99.90;;;;;;5054547;28;20141;-51
2023/01/06 07:42:44;;;;;;;9.05;2.10;;;9.60;99.90;;;;;;5054304;28;20041;-53
2023/01/06 07:45:10;;;;;;;7.45;2.00;;;9.30;99.90;;;;;;5054298;28;20375;-51
2023/01/06 07:47:36;;;;;;;8.32;2.47;;;9.20;99.90;;;;;;5054858;28;20040;-49
2023/01/06 07:50:03;;;;;;;5.97;1.40;;;9.40;99.90;;;;;;5054025;28;20048;-53
2023/01/06 07:52:29;;;;;;;12.40;3.00;;;9.00;99.90;;;;;;5054552;28;20133;-52
2023/01/06 07:54:58;;;;;;;5.53;1.55;;;8.90;99.90;;;;;;5053335;28;20060;-52
2023/01/06 07:57:25;;;;;;;11.70;1.65;;;8.60;99.90;;;;;;5053143;28;20067;-50
2023/01/06 07:59:51;;;;;;;7.75;1.20;;;8.70;99.90;;;;;;5052435;28;20051;-53
2023/01/06 08:02:17;;;;;;;8.32;1.60;;;8.50;99.90;;;;;;5052764;28;20036;-52
2023/01/06 08:04:43;;;;;;;3.88;0.90;;;8.50;99.90;;;;;;5052907;28;20816;-53
2023/01/06 08:07:08;;;;;;;5.72;1.35;;;9.30;99.90;;;;;;5052738;28;20094;-49
2023/01/06 08:09:34;;;;;;;7.55;1.02;;;9.50;99.90;;;;;;5053654;28;20147;-51
2023/01/06 08:12:00;;;;;;;7.97;1.17;;;8.40;99.90;;;;;;5054506;28;20048;-52
2023/01/06 08:14:25;;;;;;;8.38;0.90;;;8.30;99.90;;;;;;5053961;28;20616;-51
2023/01/06 08:16:51;;;;;;;7.18;1.20;;;7.90;99.90;;;;;;5053471;28;20045;-52
2023/01/06 08:19:17;;;;;;;6.47;0.95;;;8.00;99.90;;;;;;5053129;28;20052;-51
2023/01/06 08:21:43;;;;;;;10.38;1.20;;;7.90;99.90;;;;;;5053327;28;20123;-51
2023/01/06 08:24:08;;;;;;;7.65;1.20;;;9.90;99.90;;;;;;5054212;28;20044;-52
2023/01/06 08:26:34;;;;;;;7.50;1.15;;;8.30;99.90;;;;;;5053511;28;20036;-51
2023/01/06 08:29:00;;;;;;;8.20;1.10;;;8.40;99.90;;;;;;5053432;28;20041;-52
2023/01/06 08:31:26;;;;;;;11.02;1.30;;;7.90;99.90;;;;;;5054747;28;20044;-52
2023/01/06 08:33:52;;;;;;;7.47;1.27;;;8.20;99.90;;;;;;5053738;28;20048;-51
2023/01/06 08:36:20;;;;;;;10.75;1.30;;;8.10;99.90;;;;;;5055221;28;20045;-51
2023/01/06 08:38:47;;;;;;;6.85;1.20;;;8.40;99.90;;;;;;5054744;28;20044;-50
2023/01/06 08:41:13;;;;;;;7.07;1.15;;;8.60;99.90;;;;;;5055050;28;20635;-52
2023/01/06 08:43:41;;;;;;;8.73;1.33;;;8.90;99.90;;;;;;5055153;28;20886;-53
2023/01/06 08:46:09;;;;;;;10.35;1.05;;;9.40;99.90;;;;;;5054745;28;20042;-52
2023/01/06 08:48:35;;;;;;;8.18;1.25;;;9.50;99.90;;;;;;5055636;28;20121;-50
2023/01/06 08:51:07;;;;;;;10.50;1.23;;;9.20;99.90;;;;;;5054138;28;20048;-53
2023/01/06 08:53:33;;;;;;;15.15;2.17;;;9.20;99.90;;;;;;5055677;28;20084;-50
2023/01/06 08:55:59;;;;;;;9.90;1.50;;;10.10;99.90;;;;;;5054458;28;20136;-50
2023/01/06 08:58:25;;;;;;;15.77;1.45;;;8.80;99.90;;;;;;5054836;28;20106;-52
2023/01/06 09:00:51;;;;;;;12.95;1.20;;;8.90;99.90;;;;;;5086465;28;20036;-51
2023/01/06 09:03:16;;;;;;;10.90;1.67;;;8.80;99.90;;;;;;5054094;28;20052;-51
2023/01/06 09:05:42;;;;;;;17.35;1.67;;;8.80;99.90;;;;;;5055309;28;20119;-53
2023/01/06 09:08:08;;;;;;;13.80;1.75;;;8.80;99.90;;;;;;5053307;28;20178;-53
2023/01/06 09:10:37;;;;;;;10.55;1.90;;;9.10;99.90;;;;;;5051778;28;20646;-52
2023/01/06 09:13:03;;;;;;;12.57;1.50;;;9.40;99.90;;;;;;5051065;28;20409;-51
2023/01/06 09:15:29;;;;;;;18.48;1.77;;;10.00;99.90;;;;;;5054181;28;20421;-53
2023/01/06 09:17:55;;;;;;;12.15;2.10;;;10.10;99.90;;;;;;5052934;28;20041;-51
2023/01/06 09:20:21;;;;;;;13.48;1.70;;;10.20;99.90;;;;;;5052341;28;20052;-51
2023/01/06 09:22:46;;;;;;;12.95;2.20;;;10.50;99.90;;;;;;5053445;28;20098;-50
2023/01/06 09:25:12;;;;;;;13.25;2.30;;;10.60;99.90;;;;;;5052576;28;20036;-49
2023/01/06 09:27:38;;;;;;;21.73;1.85;;;11.00;99.90;;;;;;5052628;28;20044;-51
2023/01/06 09:30:04;;;;;;;13.25;1.75;;;11.00;99.90;;;;;;5053551;28;20048;-51
2023/01/06 09:32:30;;;;;;;16.50;2.80;;;10.80;99.90;;;;;;5051902;28;20048;-52
2023/01/06 09:34:55;;;;;;;21.35;2.13;;;10.70;99.90;;;;;;5052373;28;20051;-51
2023/01/06 09:37:21;;;;;;;19.40;2.00;;;10.70;99.90;;;;;;5052268;28;20052;-51
2023/01/06 09:39:47;;;;;;;13.15;1.60;;;9.90;99.90;;;;;;5051701;28;20053;-52
2023/01/06 09:42:19;;;;;;;16.17;1.88;;;10.90;99.90;;;;;;5053072;28;20055;-52
2023/01/06 09:45:05;;;;;;;16.67;3.35;;;11.00;99.90;;;;;;5051609;28;20439;-49
2023/01/06 09:47:46;;;;;;;15.63;1.98;;;10.80;99.90;;;;;;5052079;28;20450;-51
2023/01/06 09:50:19;;;;;;;16.17;1.98;;;10.50;99.90;;;;;;5052047;28;20067;-52
2023/01/06 09:52:53;;;;;;;11.43;1.40;;;10.20;99.90;;;;;;5053158;28;20443;-51
2023/01/06 09:55:25;;;;;;;13.23;2.20;;;9.90;99.90;;;;;;5052770;28;20044;-50
2023/01/06 09:57:57;;;;;;;14.13;3.65;;;9.70;99.90;;;;;;5053443;28;20425;-52
2023/01/06 10:00:47;;;;;;;12.10;1.65;;;9.70;99.90;;;;;;5051831;28;20037;-52
2023/01/06 10:03:24;;;;;;;12.57;2.28;;;9.50;99.90;;;;;;5050390;28;20097;-53
2023/01/06 10:06:11;;;;;;;8.38;1.38;;;9.40;99.90;;;;;;5052627;28;20047;-52
2023/01/06 10:08:36;;;;;;;20.63;2.42;;;9.50;99.90;;;;;;5053614;28;20047;-51
2023/01/06 10:11:18;;;;;;;11.50;1.88;;;10.00;99.90;;;;;;5053349;28;20037;-51
2023/01/06 10:14:21;;;;;;;10.50;1.60;;;10.00;99.90;;;;;;5053848;28;20456;-50
2023/01/06 10:17:09;;;;;;;11.15;1.48;;;10.30;99.90;;;;;;5020024;28;20132;-48
2023/01/06 10:19:47;;;;;;;12.80;1.88;;;10.80;99.90;;;;;;5053195;28;20386;-51
2023/01/06 10:22:46;;;;;;;13.88;1.83;;;11.00;99.90;;;;;;5053758;28;20409;-51
2023/01/06 10:25:19;;;;;;;10.07;1.30;;;10.90;99.90;;;;;;5053540;28;20055;-52
2023/01/06 10:27:55;;;;;;;17.25;2.10;;;10.90;99.90;;;;;;5053664;28;20234;-52
2023/01/06 10:30:45;;;;;;;10.60;1.52;;;10.60;99.90;;;;;;5053029;28;20040;-52
2023/01/06 10:33:29;;;;;;;11.82;1.67;;;10.60;99.90;;;;;;5052413;28;20524;-50
2023/01/06 10:35:56;;;;;;;13.98;1.98;;;10.10;99.90;;;;;;5052377;28;20052;-53
2023/01/06 10:38:33;;;;;;;12.80;1.70;;;10.00;99.90;;;;;;5051732;28;20127;-51
2023/01/06 10:41:17;;;;;;;9.60;1.63;;;10.00;99.90;;;;;;5051805;28;20099;-52
2023/01/06 10:43:43;;;;;;;12.95;1.60;;;9.80;99.90;;;;;;5051743;28;20048;-51
2023/01/06 10:46:09;;;;;;;11.35;1.73;;;9.80;99.90;;;;;;5052612;28;20037;-49
2023/01/06 10:48:35;;;;;;;10.80;1.77;;;9.60;99.90;;;;;;5052363;28;20059;-52
2023/01/06 10:51:36;;;;;;;18.20;2.58;;;11.20;99.90;;;;;;5055008;28;20045;-51
2023/01/06 10:54:12;;;;;;;12.57;1.97;;;9.60;99.90;;;;;;5056985;28;20159;-52
2023/01/06 10:56:44;;;;;;;16.58;2.45;;;9.70;99.90;;;;;;5056274;28;20128;-50
2023/01/06 10:59:11;;;;;;;13.10;2.00;;;9.30;99.90;;;;;;5055666;28;20151;-51
2023/01/06 11:01:57;;;;;;;10.35;1.80;;;9.40;99.90;;;;;;5056244;28;20047;-50
2023/01/06 11:04:25;;;;;;;9.05;1.90;;;9.50;99.90;;;;;;5053839;28;20132;-48
2023/01/06 11:06:53;;;;;;;15.30;1.83;;;9.30;99.90;;;;;;5055232;28;20028;-51
2023/01/06 11:09:29;;;;;;;21.55;2.55;;;9.70;99.90;;;;;;5055271;28;20052;-51
2023/01/06 11:11:58;;;;;;;16.17;2.00;;;9.50;99.90;;;;;;5055199;28;20052;-51
2023/01/06 11:14:32;;;;;;;13.35;1.65;;;9.40;99.90;;;;;;5055527;28;20037;-53
2023/01/06 11:17:04;;;;;;;11.63;2.22;;;9.40;99.90;;;;;;5055674;28;20056;-52
2023/01/06 11:19:41;;;;;;;13.25;1.83;;;10.50;99.90;;;;;;5056138;28;20045;-52
2023/01/06 11:22:32;;;;;;;10.40;1.48;;;9.70;99.90;;;;;;5054677;28;20061;-52
2023/01/06 11:24:58;;;;;;;13.93;1.80;;;9.90;99.90;;;;;;5057405;28;20087;-50
2023/01/06 11:27:24;;;;;;;9.57;1.85;;;9.90;99.90;;;;;;5055946;28;20519;-51
2023/01/06 11:29:49;;;;;;;12.77;2.00;;;9.70;99.90;;;;;;5057423;28;20040;-52
2023/01/06 11:32:28;;;;;;;10.70;2.13;;;9.70;99.90;;;;;;5056365;28;20567;-51
2023/01/06 11:34:56;;;;;;;10.63;1.48;;;9.90;99.90;;;;;;5056378;28;20615;-52
2023/01/06 11:37:37;;;;;;;11.38;2.00;;;10.00;99.90;;;;;;5056435;28;20033;-48
2023/01/06 11:40:30;;;;;;;14.97;2.10;;;9.90;99.90;;;;;;5055901;28;20070;-48
2023/01/06 11:43:00;;;;;;;13.75;1.90;;;10.10;99.90;;;;;;5055585;28;20041;-51
2023/01/06 11:45:37;;;;;;;13.32;2.00;;;10.00;99.90;;;;;;5056532;28;20054;-48
2023/01/06 11:48:13;;;;;;;13.27;2.13;;;10.10;99.90;;;;;;5056398;28;20037;-51
2023/01/06 11:50:39;;;;;;;14.02;2.00;;;10.00;99.90;;;;;;5054914;28;20048;-51
2023/01/06 11:53:16;;;;;;;13.55;1.60;;;10.00;99.90;;;;;;5056237;28;20040;-50
2023/01/06 11:55:53;;;;;;;13.50;2.10;;;10.10;99.90;;;;;;5054419;28;20044;-51
2023/01/06 11:58:28;;;;;;;10.77;2.50;;;10.10;99.90;;;;;;5055151;28;20048;-50
2023/01/06 12:01:05;;;;;;;16.80;1.80;;;9.50;99.90;;;;;;5053771;28;20135;-48
2023/01/06 12:03:42;;;;;;;10.82;1.52;;;10.00;99.90;;;;;;5054061;28;20029;-50
2023/01/06 12:06:26;;;;;;;10.73;2.03;;;10.00;99.90;;;;;;5054626;28;20059;-48
2023/01/06 12:09:08;;;;;;;11.65;1.63;;;9.90;99.90;;;;;;5054187;28;20041;-50
2023/01/06 12:11:50;;;;;;;9.20;1.30;;;9.80;99.90;;;;;;5054729;28;20308;-52
2023/01/06 12:14:16;;;;;;;;;;;9.90;99.90;;;;;;5054629;28;20279;-48
2023/01/06 12:17:07;;;;;;;15.85;2.78;;;9.80;99.90;;;;;;5054606;28;19920;-48
2023/01/06 12:19:41;;;;;;;8.93;1.85;;;9.70;99.90;;;;;;5054093;28;20063;-48
2023/01/06 12:22:26;;;;;;;12.50;2.17;;;10.60;99.90;;;;;;5053296;28;20113;-49
2023/01/06 12:24:54;;;;;;;15.32;2.47;;;9.60;99.90;;;;;;5054122;28;20044;-51
2023/01/06 12:27:34;;;;;;;14.88;1.75;;;9.60;99.90;;;;;;5053018;28;20125;-50
2023/01/06 12:30:04;;;;;;;15.00;2.67;;;9.40;99.90;;;;;;5054512;28;20429;-51
2023/01/06 12:32:37;;;;;;;14.40;2.65;;;9.60;99.90;;;;;;5053405;28;20114;-49
2023/01/06 12:35:05;;;;;;;13.35;1.80;;;9.40;99.90;;;;;;5052684;28;20055;-50
2023/01/06 12:37:44;;;;;;;8.90;1.63;;;9.40;99.90;;;;;;5053635;28;20032;-50
2023/01/06 12:40:16;;;;;;;10.55;1.63;;;9.20;99.90;;;;;;5052732;28;20094;-48
2023/01/06 12:42:44;;;;;;;;;;;9.10;99.90;;;;;;5054734;28;20400;-49
2023/01/06 12:45:15;;;;;;;9.02;1.30;;;9.10;99.90;;;;;;5054820;28;19963;-50
2023/01/06 12:47:48;;;;;;;15.43;2.28;;;9.00;99.90;;;;;;5053876;28;20115;-48
2023/01/06 12:50:34;;;;;;;15.52;2.15;;;9.20;99.90;;;;;;5054222;28;20067;-48
2023/01/06 12:53:12;;;;;;;8.15;1.60;;;9.00;99.90;;;;;;5054588;28;20214;-48
2023/01/06 12:55:52;;;;;;;12.90;1.75;;;9.10;99.90;;;;;;5053953;28;20055;-49
2023/01/06 12:58:49;;;;;;;17.85;2.20;;;9.20;99.90;;;;;;5054016;28;20079;-51
2023/01/06 13:01:39;;;;;;;17.38;2.20;;;9.20;99.90;;;;;;5052019;28;20105;-52
2023/01/06 13:04:50;;;;;;;13.77;1.42;;;9.00;99.90;;;;;;5050817;28;20059;-51
2023/01/06 13:07:30;;;;;;;12.55;2.05;;;9.20;99.90;;;;;;5051277;28;20102;-51
2023/01/06 13:10:14;;;;;;;15.45;2.38;;;9.10;99.90;;;;;;5052662;28;20618;-48
2023/01/06 13:12:40;;;;;;;22.05;2.25;;;9.10;99.90;;;;;;5050300;28;20052;-51